Time;durP1;ratioP1;P1;durP2;ratioP2;P2;SDS_P1;SDS_P2;PMS_P1;PMS_P2;Temp;Humidity;BMP_temperature;BMP_pressure;BME280_temperature;BME280_humidity;BME280_pressure;Samples;Min_cycle;Max_cycle;Signal;HPM_P1;HPM_P2
2021/04/10 00:00:24;;;;;;;16.10;3.43;;;5.90;89.30;;;;;;5110273;28;20088;-67
2021/04/10 00:02:51;;;;;;;10.83;3.37;;;5.90;89.30;;;;;;5110219;28;20044;-66
2021/04/10 00:05:21;;;;;;;9.33;2.47;;;5.80;89.30;;;;;;5109701;28;20070;-67
2021/04/10 00:07:47;;;;;;;10.70;2.90;;;5.80;89.40;;;;;;5110214;28;20320;-67
2021/04/10 00:10:13;;;;;;;11.23;3.00;;;5.80;89.20;;;;;;5109949;28;20372;-67
2021/04/10 00:12:39;;;;;;;9.67;3.40;;;5.70;89.10;;;;;;5109952;28;20085;-66
2021/04/10 00:15:07;;;;;;;9.13;2.63;;;5.80;89.30;;;;;;5109461;28;20293;-67
2021/04/10 00:17:34;;;;;;;10.17;2.13;;;5.80;89.40;;;;;;5109096;28;20301;-67
2021/04/10 00:20:00;;;;;;;11.07;1.97;;;5.70;89.00;;;;;;5109294;28;20297;-66
2021/04/10 00:22:25;;;;;;;12.13;1.83;;;5.70;89.00;;;;;;5110443;28;20106;-66
2021/04/10 00:24:51;;;;;;;11.93;2.60;;;5.70;89.00;;;;;;5108756;28;20043;-66
2021/04/10 00:27:17;;;;;;;9.30;2.03;;;5.70;89.00;;;;;;5109417;28;20043;-67
2021/04/10 00:29:43;;;;;;;9.63;2.10;;;5.70;89.00;;;;;;5109285;28;20048;-66
2021/04/10 00:32:08;;;;;;;7.80;2.30;;;5.70;89.00;;;;;;5109150;28;20035;-66
2021/04/10 00:34:34;;;;;;;12.47;2.47;;;5.70;89.20;;;;;;5109391;28;20048;-67
2021/04/10 00:37:00;;;;;;;7.27;2.40;;;5.70;89.10;;;;;;5109186;28;20047;-66
2021/04/10 00:39:25;;;;;;;9.20;2.40;;;5.70;89.10;;;;;;5109354;28;20063;-67
2021/04/10 00:41:51;;;;;;;7.97;2.43;;;5.80;89.40;;;;;;5109716;28;20047;-66
2021/04/10 00:44:16;;;;;;;9.67;2.33;;;5.80;89.40;;;;;;5109314;28;20077;-67
2021/04/10 00:46:42;;;;;;;8.20;2.67;;;5.90;89.00;;;;;;5108517;28;20130;-67
2021/04/10 00:49:08;;;;;;;10.60;2.93;;;5.90;89.00;;;;;;5109471;28;20655;-67
2021/04/10 00:51:34;;;;;;;10.37;2.47;;;6.00;88.80;;;;;;5109359;28;20321;-67
2021/04/10 00:54:00;;;;;;;13.07;3.23;;;6.00;88.70;;;;;;5107964;28;20040;-67
2021/04/10 00:56:26;;;;;;;8.70;2.93;;;6.00;89.90;;;;;;5109192;28;20301;-67
2021/04/10 00:58:53;;;;;;;12.73;2.70;;;5.90;89.00;;;;;;5109500;28;20058;-66
2021/04/10 01:01:18;;;;;;;10.63;2.33;;;5.90;89.60;;;;;;5108236;28;21147;-66
2021/04/10 01:03:44;;;;;;;9.53;2.53;;;5.90;89.60;;;;;;5108820;28;20290;-67
2021/04/10 01:06:11;;;;;;;9.17;2.40;;;5.80;89.60;;;;;;5109247;28;20108;-66
2021/04/10 01:08:36;;;;;;;8.90;3.70;;;5.80;90.00;;;;;;5108368;28;20413;-66
2021/04/10 01:11:07;;;;;;;10.80;2.50;;;5.70;90.00;;;;;;5108430;28;20321;-67
2021/04/10 01:13:53;;;;;;;9.85;3.03;;;5.70;90.00;;;;;;5109217;28;20433;-67
2021/04/10 01:16:30;;;;;;;14.83;3.03;;;5.70;90.00;;;;;;5109176;28;20776;-67
2021/04/10 01:19:24;;;;;;;8.90;2.17;;;5.80;90.00;;;;;;5108841;28;20305;-67
2021/04/10 01:22:07;;;;;;;9.70;2.50;;;5.90;89.90;;;;;;5107650;28;20308;-67
2021/04/10 01:25:10;;;;;;;9.63;2.43;;;5.90;89.80;;;;;;5108901;28;21164;-66
2021/04/10 01:27:46;;;;;;;14.37;2.80;;;5.90;89.50;;;;;;5108454;28;20302;-67
2021/04/10 01:30:19;;;;;;;6.57;2.37;;;5.90;89.50;;;;;;5108317;28;20366;-67
2021/04/10 01:33:03;;;;;;;8.23;2.67;;;5.90;89.50;;;;;;5108966;28;20654;-67
2021/04/10 01:35:43;;;;;;;8.63;2.30;;;5.90;89.50;;;;;;5107891;28;20298;-66
2021/04/10 01:38:15;;;;;;;11.73;3.13;;;6.00;89.20;;;;;;5108496;28;20303;-67
2021/04/10 01:40:42;;;;;;;9.50;2.35;;;6.00;88.80;;;;;;5108330;28;20354;-67
2021/04/10 01:43:11;;;;;;;10.47;2.20;;;6.10;88.70;;;;;;5108192;28;20048;-67
2021/04/10 01:45:37;;;;;;;11.73;2.80;;;6.10;88.70;;;;;;5108517;28;20300;-67
2021/04/10 01:48:08;;;;;;;8.60;2.37;;;6.10;88.60;;;;;;5111349;28;20341;-67
2021/04/10 01:50:36;;;;;;;6.28;2.30;;;6.10;88.50;;;;;;5112516;28;20351;-67
2021/04/10 01:53:03;;;;;;;4.83;1.90;;;6.20;88.50;;;;;;5112751;27;20055;-67
2021/04/10 01:55:29;;;;;;;9.00;2.93;;;6.10;88.20;;;;;;5113102;28;20293;-66
2021/04/10 01:57:56;;;;;;;6.83;2.13;;;6.10;88.00;;;;;;5111334;28;20372;-66
2021/04/10 02:00:31;;;;;;;8.03;2.33;;;6.10;88.20;;;;;;5112672;28;20355;-66
2021/04/10 02:02:57;;;;;;;8.73;3.00;;;6.10;88.30;;;;;;5111883;28;20285;-66
2021/04/10 02:05:26;;;;;;;10.03;2.63;;;6.10;88.50;;;;;;5112631;28;20301;-66
2021/04/10 02:07:52;;;;;;;8.87;2.53;;;6.00;88.30;;;;;;5112071;28;20797;-67
2021/04/10 02:10:22;;;;;;;5.77;2.07;;;6.00;88.40;;;;;;5111493;28;20293;-67
2021/04/10 02:12:51;;;;;;;9.33;2.57;;;6.10;88.60;;;;;;5112661;28;20773;-66
2021/04/10 02:15:17;;;;;;;11.47;3.00;;;6.10;88.50;;;;;;5111910;28;20846;-66
2021/04/10 02:17:43;;;;;;;10.67;2.77;;;6.10;88.30;;;;;;5111070;28;20358;-67
2021/04/10 02:20:11;;;;;;;9.63;2.30;;;6.20;88.20;;;;;;5112328;27;20301;-67
2021/04/10 02:22:38;;;;;;;7.87;3.03;;;6.10;88.00;;;;;;5112753;27;20040;-66
2021/04/10 02:25:06;;;;;;;11.23;2.87;;;6.00;87.90;;;;;;5110924;28;20304;-66
2021/04/10 02:27:32;;;;;;;9.23;2.30;;;6.00;88.10;;;;;;5111187;28;20313;-66
2021/04/10 02:29:59;;;;;;;10.17;2.90;;;6.00;88.20;;;;;;5112004;28;20290;-66
2021/04/10 02:32:35;;;;;;;9.67;2.77;;;6.00;88.40;;;;;;5111829;28;20470;-66
2021/04/10 02:35:12;;;;;;;8.97;2.77;;;6.00;88.50;;;;;;5111411;28;20353;-66
2021/04/10 02:37:39;;;;;;;10.07;2.67;;;5.90;88.60;;;;;;5111942;28;20354;-66
2021/04/10 02:40:07;;;;;;;7.77;2.60;;;5.90;88.70;;;;;;5111142;28;20294;-66
2021/04/10 02:42:37;;;;;;;10.80;2.60;;;5.90;88.80;;;;;;5111930;27;20450;-66
2021/04/10 02:45:06;;;;;;;8.87;2.60;;;5.90;88.70;;;;;;5111244;28;20293;-66
2021/04/10 02:47:34;;;;;;;7.53;2.37;;;5.90;88.80;;;;;;5111104;28;20301;-66
2021/04/10 02:50:04;;;;;;;13.93;2.90;;;5.90;88.90;;;;;;5111629;28;20386;-66
2021/04/10 02:52:39;;;;;;;8.30;2.70;;;5.90;88.80;;;;;;5110919;28;20301;-66
2021/04/10 02:55:08;;;;;;;9.20;2.57;;;5.90;88.80;;;;;;5110671;28;20312;-66
2021/04/10 02:57:35;;;;;;;13.30;3.37;;;5.90;88.90;;;;;;5111050;28;20292;-66
2021/04/10 03:00:04;;;;;;;9.87;2.80;;;5.90;88.90;;;;;;5110253;28;20305;-66
2021/04/10 03:02:31;;;;;;;8.93;2.43;;;5.90;88.90;;;;;;5110990;28;20291;-66
2021/04/10 03:04:59;;;;;;;9.63;2.93;;;5.90;88.70;;;;;;5110770;28;20304;-66
2021/04/10 03:07:25;;;;;;;11.63;2.90;;;5.90;88.80;;;;;;5110599;28;20313;-66
2021/04/10 03:09:51;;;;;;;14.10;3.00;;;5.90;88.90;;;;;;5111117;28;20109;-66
2021/04/10 03:12:19;;;;;;;10.07;2.60;;;5.90;88.70;;;;;;5110549;28;20126;-67
2021/04/10 03:14:46;;;;;;;7.97;3.00;;;5.90;88.60;;;;;;5109764;28;20356;-67
2021/04/10 03:17:21;;;;;;;10.40;2.90;;;5.90;88.90;;;;;;5110246;28;20298;-67
2021/04/10 03:19:47;;;;;;;8.57;2.80;;;5.90;89.90;;;;;;5110973;28;20301;-67
2021/04/10 03:22:15;;;;;;;13.93;3.00;;;5.90;89.10;;;;;;5109621;28;20289;-67
2021/04/10 03:24:41;;;;;;;6.83;2.90;;;5.90;89.10;;;;;;5110221;27;20723;-67
2021/04/10 03:27:08;;;;;;;10.40;3.33;;;5.90;89.30;;;;;;5110615;28;20306;-66
2021/04/10 03:29:35;;;;;;;8.03;2.93;;;5.80;89.30;;;;;;5109707;28;20657;-67
2021/04/10 03:32:01;;;;;;;8.67;2.70;;;5.80;89.40;;;;;;5109984;28;20297;-67
2021/04/10 03:34:28;;;;;;;6.57;3.37;;;5.90;89.50;;;;;;5109674;28;20358;-67
2021/04/10 03:36:54;;;;;;;10.40;3.23;;;5.90;89.50;;;;;;5110489;28;20040;-67
2021/04/10 03:39:20;;;;;;;9.00;3.20;;;5.90;89.50;;;;;;5110259;28;20305;-66
2021/04/10 03:41:46;;;;;;;9.53;3.70;;;5.90;89.50;;;;;;5109568;28;20331;-67
2021/04/10 03:44:12;;;;;;;11.40;3.10;;;5.90;89.40;;;;;;5110082;28;20051;-66
2021/04/10 03:46:38;;;;;;;9.77;3.20;;;5.90;89.50;;;;;;5110872;28;20043;-67
2021/04/10 03:49:04;;;;;;;6.90;3.27;;;5.90;89.50;;;;;;5109097;28;20054;-67
2021/04/10 03:51:30;;;;;;;9.80;3.00;;;5.90;89.50;;;;;;5110451;28;20070;-67
2021/04/10 03:53:57;;;;;;;9.70;3.30;;;5.90;89.40;;;;;;5110108;28;20306;-67
2021/04/10 03:56:23;;;;;;;10.10;3.33;;;5.90;89.30;;;;;;5109589;28;20293;-67
2021/04/10 03:58:48;;;;;;;10.17;3.37;;;5.90;89.30;;;;;;5109963;28;20374;-67
2021/04/10 04:01:14;;;;;;;10.60;3.30;;;5.90;89.30;;;;;;5109878;28;20453;-67
2021/04/10 04:03:40;;;;;;;14.20;3.83;;;5.90;89.30;;;;;;5110003;28;20083;-67
2021/04/10 04:06:06;;;;;;;9.57;3.90;;;5.90;89.30;;;;;;5109838;28;20058;-67
2021/04/10 04:08:31;;;;;;;12.53;3.70;;;5.90;89.30;;;;;;5109895;28;20047;-67
2021/04/10 04:10:57;;;;;;;11.53;3.50;;;5.90;89.50;;;;;;5108125;28;20075;-67
2021/04/10 04:13:23;;;;;;;6.17;3.07;;;5.80;89.50;;;;;;5110527;28;20055;-67
2021/04/10 04:15:48;;;;;;;5.27;2.40;;;5.90;89.50;;;;;;5109563;28;20055;-67
2021/04/10 04:18:14;;;;;;;13.77;3.50;;;5.80;89.50;;;;;;5109204;28;20066;-67
2021/04/10 04:20:40;;;;;;;8.43;3.47;;;5.90;89.50;;;;;;5110267;28;20146;-66
2021/04/10 04:23:06;;;;;;;14.47;3.73;;;5.90;89.50;;;;;;5109748;28;20055;-67
2021/04/10 04:25:32;;;;;;;10.63;3.20;;;5.80;89.50;;;;;;5108983;28;20297;-67
2021/04/10 04:28:00;;;;;;;8.73;3.47;;;5.80;89.50;;;;;;5108936;28;20404;-67
2021/04/10 04:30:25;;;;;;;12.57;3.30;;;5.70;89.70;;;;;;5110177;28;20321;-67
2021/04/10 04:32:51;;;;;;;10.43;3.70;;;5.70;89.70;;;;;;5108671;28;21007;-67
2021/04/10 04:35:17;;;;;;;11.53;3.67;;;5.70;89.80;;;;;;5109193;28;20802;-67
2021/04/10 04:37:42;;;;;;;8.83;3.37;;;5.70;89.80;;;;;;5108232;28;20538;-67
2021/04/10 04:40:09;;;;;;;10.57;3.60;;;5.70;89.90;;;;;;5109625;28;20050;-67
2021/04/10 04:42:35;;;;;;;7.03;2.90;;;5.70;90.00;;;;;;5109406;28;20304;-67
2021/04/10 04:45:01;;;;;;;10.90;3.97;;;5.70;90.30;;;;;;5108183;28;20913;-67
2021/04/10 04:47:27;;;;;;;10.40;3.63;;;5.70;90.00;;;;;;5109834;28;20059;-67
2021/04/10 04:49:52;;;;;;;12.80;3.57;;;5.80;89.90;;;;;;5108950;28;20134;-67
2021/04/10 04:52:18;;;;;;;13.03;3.53;;;5.70;89.90;;;;;;5108227;28;20054;-67
2021/04/10 04:54:44;;;;;;;12.73;3.90;;;5.60;90.00;;;;;;5109257;28;20055;-67
2021/04/10 04:57:09;;;;;;;13.47;3.67;;;5.70;90.00;;;;;;5109465;28;20658;-67
2021/04/10 04:59:35;;;;;;;11.30;3.43;;;5.70;90.00;;;;;;5108798;28;20066;-67
2021/04/10 05:02:01;;;;;;;8.87;3.77;;;5.60;90.00;;;;;;5108413;28;20134;-67
2021/04/10 05:04:27;;;;;;;9.93;3.73;;;5.60;90.10;;;;;;5109446;28;20048;-67
2021/04/10 05:06:52;;;;;;;16.00;4.10;;;5.60;90.10;;;;;;5108157;28;20035;-67
2021/04/10 05:09:18;;;;;;;14.03;3.33;;;5.50;90.10;;;;;;5108578;28;20050;-67
2021/04/10 05:11:43;;;;;;;13.33;2.83;;;5.50;90.00;;;;;;5108571;28;20053;-67
2021/04/10 05:14:10;;;;;;;13.50;3.17;;;5.50;89.50;;;;;;5108391;28;20044;-67
2021/04/10 05:16:36;;;;;;;15.10;3.30;;;5.50;89.20;;;;;;5108913;28;20058;-66
2021/04/10 05:19:02;;;;;;;9.10;2.60;;;5.50;88.90;;;;;;5108031;28;20666;-67
2021/04/10 05:21:28;;;;;;;11.13;2.60;;;5.40;88.60;;;;;;5107061;28;20043;-67
2021/04/10 05:23:54;;;;;;;14.43;2.57;;;5.40;88.00;;;;;;5109040;28;20666;-67
2021/04/10 05:26:19;;;;;;;9.07;2.93;;;5.40;87.60;;;;;;5108651;28;20042;-67
2021/04/10 05:28:45;;;;;;;8.33;2.20;;;5.30;87.20;;;;;;5107685;28;20380;-67
2021/04/10 05:31:11;;;;;;;6.93;2.27;;;5.30;87.20;;;;;;5108933;28;20044;-67
2021/04/10 05:33:37;;;;;;;11.73;2.10;;;5.30;87.00;;;;;;5108973;28;20504;-67
2021/04/10 05:36:03;;;;;;;12.63;1.87;;;5.30;86.70;;;;;;5107666;28;20052;-67
2021/04/10 05:38:29;;;;;;;8.00;2.47;;;5.30;86.40;;;;;;5108658;28;20128;-67
2021/04/10 05:40:55;;;;;;;9.13;2.30;;;5.30;86.10;;;;;;5108480;28;20343;-67
2021/04/10 05:43:21;;;;;;;8.43;1.73;;;5.30;85.80;;;;;;5107974;28;20393;-67
2021/04/10 05:45:47;;;;;;;7.83;1.70;;;5.30;85.70;;;;;;5108281;28;20044;-67
2021/04/10 05:48:13;;;;;;;9.40;2.10;;;5.30;85.50;;;;;;5107406;28;20313;-67
2021/04/10 05:50:38;;;;;;;9.87;2.47;;;5.30;85.40;;;;;;5108847;28;20040;-67
2021/04/10 05:53:04;;;;;;;12.37;2.00;;;5.40;85.50;;;;;;5107843;28;20138;-67
2021/04/10 05:55:30;;;;;;;10.70;2.17;;;5.40;85.40;;;;;;5107828;28;20073;-67
2021/04/10 05:57:56;;;;;;;13.00;2.70;;;5.40;85.50;;;;;;5108444;28;20294;-67
2021/04/10 06:00:22;;;;;;;10.93;2.13;;;5.40;85.50;;;;;;5108362;28;20051;-66
2021/04/10 06:02:52;;;;;;;11.97;2.50;;;5.50;85.50;;;;;;5107516;28;20065;-66
2021/04/10 06:05:19;;;;;;;15.47;3.20;;;5.50;85.50;;;;;;5107931;28;20404;-66
2021/04/10 06:07:46;;;;;;;8.87;2.53;;;5.60;85.50;;;;;;5108290;28;20374;-67
2021/04/10 06:10:13;;;;;;;13.60;3.57;;;5.60;85.20;;;;;;5107743;28;20331;-66
2021/04/10 06:12:38;;;;;;;9.43;2.07;;;5.60;85.20;;;;;;5108411;28;20849;-66
2021/04/10 06:15:06;;;;;;;9.27;2.30;;;5.60;85.20;;;;;;5107749;28;20397;-66
2021/04/10 06:17:32;;;;;;;9.93;2.20;;;5.70;85.10;;;;;;5107674;28;20131;-66
2021/04/10 06:19:57;;;;;;;10.73;2.23;;;5.70;85.00;;;;;;5107386;28;20754;-66
2021/04/10 06:22:23;;;;;;;10.10;1.70;;;5.70;84.50;;;;;;5108196;28;20039;-66
2021/04/10 06:24:50;;;;;;;8.10;1.80;;;5.80;84.30;;;;;;5107513;28;20055;-66
2021/04/10 06:27:16;;;;;;;9.17;1.77;;;5.80;84.10;;;;;;5107757;28;20496;-66
2021/04/10 06:29:42;;;;;;;9.20;1.97;;;5.80;84.10;;;;;;5107735;28;20327;-66
2021/04/10 06:32:08;;;;;;;11.33;2.40;;;5.90;84.10;;;;;;5107124;28;20309;-66
2021/04/10 06:34:33;;;;;;;10.60;2.33;;;5.90;83.90;;;;;;5111905;28;20048;-66
2021/04/10 06:36:59;;;;;;;15.43;3.23;;;5.90;83.80;;;;;;5111338;28;20047;-67
2021/04/10 06:39:25;;;;;;;10.57;1.97;;;5.90;83.70;;;;;;5111182;28;20478;-67
2021/04/10 06:41:51;;;;;;;10.00;1.90;;;6.00;83.50;;;;;;5111434;28;20171;-66
2021/04/10 06:44:16;;;;;;;10.53;2.37;;;6.10;83.10;;;;;;5111168;28;20134;-66
2021/04/10 06:46:42;;;;;;;6.97;2.03;;;6.10;82.60;;;;;;5111912;28;20380;-66
2021/04/10 06:49:09;;;;;;;7.90;1.60;;;6.10;82.40;;;;;;5110245;28;20076;-67
2021/04/10 06:51:37;;;;;;;5.63;1.67;;;6.10;81.80;;;;;;5109641;28;20050;-66
2021/04/10 06:54:06;;;;;;;9.47;1.90;;;6.10;81.50;;;;;;5110800;28;20656;-67
2021/04/10 06:56:37;;;;;;;11.33;2.20;;;6.20;81.20;;;;;;5111482;28;21137;-66
2021/04/10 06:59:22;;;;;;;8.50;1.83;;;6.20;80.90;;;;;;5110090;28;20688;-67
2021/04/10 07:01:49;;;;;;;11.43;2.20;;;6.20;80.90;;;;;;5111533;28;20328;-67
2021/04/10 07:04:15;;;;;;;12.90;2.27;;;6.30;80.70;;;;;;5109313;28;20301;-67
2021/04/10 07:06:40;;;;;;;10.13;1.73;;;6.40;80.60;;;;;;5109482;28;20434;-66
2021/04/10 07:09:06;;;;;;;12.00;2.57;;;6.40;79.70;;;;;;5110946;28;20955;-67
2021/04/10 07:11:33;;;;;;;10.80;2.30;;;6.50;79.10;;;;;;5111693;28;20052;-67
2021/04/10 07:14:00;;;;;;;14.47;2.43;;;6.50;78.90;;;;;;5109795;28;20055;-69
2021/04/10 07:16:25;;;;;;;9.07;1.83;;;6.50;78.90;;;;;;5111140;28;20878;-68
2021/04/10 07:18:53;;;;;;;8.27;1.70;;;6.60;78.60;;;;;;5110637;28;20424;-68
2021/04/10 07:21:21;;;;;;;9.83;1.70;;;6.60;77.50;;;;;;5110592;28;20073;-65
2021/04/10 07:23:48;;;;;;;10.73;1.63;;;6.60;77.40;;;;;;5111323;28;20297;-65
2021/04/10 07:26:16;;;;;;;8.07;2.10;;;6.60;77.00;;;;;;5110601;28;20296;-67
2021/04/10 07:28:42;;;;;;;9.90;1.90;;;6.70;77.20;;;;;;5109378;28;20366;-66
2021/04/10 07:31:13;;;;;;;10.60;1.83;;;6.70;77.00;;;;;;5110949;28;20289;-67
2021/04/10 07:33:44;;;;;;;11.00;2.10;;;6.80;76.10;;;;;;5110017;28;20059;-68
2021/04/10 07:36:12;;;;;;;7.50;1.67;;;6.90;75.90;;;;;;5109963;28;20048;-66
2021/04/10 07:38:42;;;;;;;12.53;1.80;;;7.00;75.50;;;;;;5111289;28;20297;-67
2021/04/10 07:41:14;;;;;;;13.20;1.93;;;7.30;75.00;;;;;;5109609;28;21927;-67
2021/04/10 07:43:41;;;;;;;7.50;1.70;;;7.50;74.10;;;;;;5109868;28;20366;-66
2021/04/10 07:46:14;;;;;;;15.67;2.33;;;7.50;74.10;;;;;;5109243;28;20125;-66
2021/04/10 07:48:57;;;;;;;8.53;1.80;;;7.60;73.50;;;;;;5110010;28;20351;-67
2021/04/10 07:51:23;;;;;;;9.83;1.97;;;7.60;73.20;;;;;;5107935;28;20321;-66
2021/04/10 07:53:49;;;;;;;8.63;1.77;;;7.70;73.20;;;;;;5107569;28;20718;-67
2021/04/10 07:56:14;;;;;;;12.27;2.40;;;7.80;72.80;;;;;;5108622;28;20048;-68
2021/04/10 07:58:40;;;;;;;10.70;2.63;;;7.90;71.00;;;;;;5108869;28;20058;-68
2021/04/10 08:01:08;;;;;;;10.70;2.20;;;8.00;70.30;;;;;;5109621;28;20696;-68
2021/04/10 08:03:57;;;;;;;9.67;2.20;;;8.00;69.70;;;;;;5107395;28;20048;-67
2021/04/10 08:06:22;;;;;;;6.73;1.43;;;8.10;69.90;;;;;;5107418;28;20298;-67
2021/04/10 08:08:53;;;;;;;14.93;2.20;;;8.20;69.30;;;;;;5109110;28;20878;-67
2021/04/10 08:11:39;;;;;;;10.40;1.93;;;8.20;68.50;;;;;;5107592;28;20054;-67
2021/04/10 08:14:07;;;;;;;9.40;2.37;;;8.20;66.80;;;;;;5107460;28;20293;-67
2021/04/10 08:16:38;;;;;;;7.93;2.13;;;8.20;68.00;;;;;;5107126;28;20864;-67
2021/04/10 08:19:05;;;;;;;7.13;1.40;;;8.20;67.20;;;;;;5108785;28;20770;-68
2021/04/10 08:21:30;;;;;;;7.93;1.47;;;8.30;66.30;;;;;;5109957;28;20050;-66
2021/04/10 08:23:56;;;;;;;7.67;1.50;;;8.30;66.10;;;;;;5108192;28;20657;-67
2021/04/10 08:26:23;;;;;;;5.60;1.63;;;8.40;66.00;;;;;;5109655;28;20063;-67
2021/04/10 08:28:49;;;;;;;9.87;1.87;;;8.50;65.90;;;;;;5109744;28;20308;-67
2021/04/10 08:31:15;;;;;;;10.37;1.60;;;8.70;65.70;;;;;;5108485;28;20297;-67
2021/04/10 08:33:41;;;;;;;8.57;1.53;;;8.90;64.90;;;;;;5109207;28;20063;-66
2021/04/10 08:36:10;;;;;;;7.37;2.10;;;9.00;65.30;;;;;;5109130;28;20077;-68
2021/04/10 08:38:39;;;;;;;6.83;1.40;;;9.00;65.10;;;;;;5109306;28;20055;-68
2021/04/10 08:41:07;;;;;;;8.43;2.03;;;9.00;64.20;;;;;;5109030;28;20297;-68
2021/04/10 08:43:37;;;;;;;9.97;1.70;;;9.00;64.00;;;;;;5109003;28;20653;-66
2021/04/10 08:46:04;;;;;;;7.80;2.13;;;9.00;63.10;;;;;;5108119;28;20297;-66
2021/04/10 08:48:31;;;;;;;7.87;1.70;;;8.90;63.50;;;;;;5109457;28;20313;-66
2021/04/10 08:51:01;;;;;;;8.97;2.30;;;8.80;63.70;;;;;;5107881;28;20387;-66
2021/04/10 08:53:28;;;;;;;7.70;1.40;;;8.70;62.90;;;;;;5109007;28;20297;-66
2021/04/10 08:55:55;;;;;;;8.60;2.13;;;8.60;63.70;;;;;;5108559;28;20307;-67
2021/04/10 08:58:31;;;;;;;9.90;1.90;;;8.50;64.10;;;;;;5106636;28;20316;-67
2021/04/10 09:01:02;;;;;;;10.23;1.73;;;8.60;64.30;;;;;;5108417;28;20319;-66
2021/04/10 09:03:48;;;;;;;11.00;1.77;;;8.60;64.30;;;;;;5106217;28;20301;-66
2021/04/10 09:06:15;;;;;;;5.13;1.43;;;8.50;61.70;;;;;;5100373;28;20302;-66
2021/04/10 09:08:41;;;;;;;4.33;1.53;;;8.40;63.60;;;;;;5111826;28;20345;-66
2021/04/10 09:11:10;;;;;;;10.17;1.97;;;8.40;63.60;;;;;;5111943;28;20390;-65
2021/04/10 09:13:41;;;;;;;10.27;1.50;;;8.40;62.90;;;;;;5111662;28;20067;-66
2021/04/10 09:16:27;;;;;;;7.32;1.92;;;8.30;63.00;;;;;;5111905;28;20301;-66
2021/04/10 09:18:58;;;;;;;12.97;2.23;;;8.40;63.30;;;;;;5111385;28;20075;-66
2021/04/10 09:21:33;;;;;;;12.20;1.85;;;8.30;62.80;;;;;;5111532;28;20444;-66
2021/04/10 09:23:59;;;;;;;10.87;1.60;;;8.30;62.60;;;;;;5111188;28;20408;-66
2021/04/10 09:26:24;;;;;;;9.40;2.40;;;8.30;62.50;;;;;;5110569;28;20302;-66
2021/04/10 09:29:05;;;;;;;8.70;2.10;;;8.30;62.20;;;;;;5110889;28;20044;-65
2021/04/10 09:31:39;;;;;;;9.30;2.07;;;8.40;62.40;;;;;;5111140;28;20127;-66
2021/04/10 09:34:05;;;;;;;12.83;2.50;;;8.60;62.50;;;;;;5110130;28;20357;-66
2021/04/10 09:36:49;;;;;;;9.60;1.90;;;8.60;61.80;;;;;;5111168;28;20290;-66
2021/04/10 09:39:49;;;;;;;5.93;1.33;;;8.70;60.70;;;;;;5111209;28;20309;-66
2021/04/10 09:45:20;;;;;;;9.13;1.63;;;8.60;61.30;;;;;;5111659;28;20332;-66
2021/04/10 09:50:23;;;;;;;11.00;2.57;;;8.60;61.70;;;;;;5111635;28;20301;-66
2021/04/10 09:52:58;;;;;;;7.20;1.47;;;8.70;62.50;;;;;;5111375;28;20350;-66
2021/04/10 09:55:26;;;;;;;6.17;1.77;;;8.80;61.80;;;;;;5110615;28;20044;-66
2021/04/10 09:58:20;;;;;;;7.07;1.70;;;8.90;61.20;;;;;;5111556;28;20326;-66
2021/04/10 10:00:47;;;;;;;9.40;1.77;;;8.90;61.50;;;;;;5111087;28;20300;-68
2021/04/10 10:03:15;;;;;;;7.97;2.17;;;8.90;61.50;;;;;;5110661;28;20362;-68
2021/04/10 10:05:46;;;;;;;7.67;2.20;;;8.80;62.10;;;;;;5111396;28;20305;-67
2021/04/10 10:08:14;;;;;;;8.48;1.40;;;8.90;60.90;;;;;;5112867;28;20305;-68
2021/04/10 10:10:42;;;;;;;8.90;2.10;;;8.80;61.10;;;;;;5115407;28;20047;-67
2021/04/10 10:13:16;;;;;;;7.70;1.80;;;8.80;61.10;;;;;;5115058;28;20782;-67
2021/04/10 10:15:43;;;;;;;10.07;2.00;;;8.80;61.40;;;;;;5114578;28;20298;-67
2021/04/10 10:18:30;;;;;;;7.27;1.87;;;8.80;61.10;;;;;;5115129;28;20305;-67
2021/04/10 10:21:14;;;;;;;7.97;2.17;;;8.80;61.40;;;;;;5114928;28;20781;-67
2021/04/10 10:23:54;;;;;;;8.27;1.70;;;8.80;61.70;;;;;;5114461;28;20852;-67
2021/04/10 10:26:23;;;;;;;9.53;1.87;;;8.80;61.60;;;;;;5115715;28;20301;-67
2021/04/10 10:29:15;;;;;;;12.07;2.47;;;8.70;60.90;;;;;;5114837;28;20316;-67
2021/04/10 10:31:47;;;;;;;4.70;1.80;;;8.70;60.40;;;;;;5114196;28;20301;-67
2021/04/10 10:34:16;;;;;;;7.57;1.53;;;8.80;60.90;;;;;;5114697;28;20051;-67
2021/04/10 10:36:43;;;;;;;7.80;1.93;;;8.80;60.90;;;;;;5114272;28;20301;-67
2021/04/10 10:39:24;;;;;;;7.27;1.80;;;8.70;60.20;;;;;;5114934;28;20370;-67
2021/04/10 10:41:50;;;;;;;11.65;2.10;;;8.70;59.20;;;;;;5114841;28;20324;-66
2021/04/10 10:44:18;;;;;;;7.77;1.87;;;8.60;60.10;;;;;;5113743;28;20472;-67
2021/04/10 10:46:44;;;;;;;10.17;2.13;;;8.70;59.90;;;;;;5114935;28;20054;-67
2021/04/10 10:49:11;;;;;;;6.37;1.40;;;8.60;60.00;;;;;;5114312;28;20313;-67
2021/04/10 10:51:39;;;;;;;8.47;1.47;;;8.60;60.30;;;;;;5114197;28;20048;-67
2021/04/10 10:54:05;;;;;;;8.57;1.90;;;8.60;60.70;;;;;;5114339;28;20721;-68
2021/04/10 10:56:33;;;;;;;6.53;1.57;;;8.60;59.90;;;;;;5114496;28;20790;-68
2021/04/10 10:58:58;;;;;;;5.87;1.73;;;8.60;60.20;;;;;;5113343;28;20305;-67
2021/04/10 11:01:35;;;;;;;8.13;1.83;;;8.60;60.30;;;;;;5115048;28;20281;-68
2021/04/10 11:04:19;;;;;;;8.30;1.73;;;8.60;60.60;;;;;;5113901;28;20048;-67
2021/04/10 11:06:53;;;;;;;9.47;2.50;;;8.70;60.30;;;;;;5113459;28;20759;-67
2021/04/10 11:09:21;;;;;;;10.87;1.73;;;8.70;60.00;;;;;;5114029;28;20320;-68
2021/04/10 11:11:48;;;;;;;9.70;1.80;;;8.70;60.00;;;;;;5113575;28;20350;-67
2021/04/10 11:14:29;;;;;;;7.00;1.87;;;8.70;60.00;;;;;;5114059;28;20798;-67
2021/04/10 11:16:57;;;;;;;7.43;2.20;;;8.80;59.50;;;;;;5113915;28;20382;-67
2021/04/10 11:19:32;;;;;;;7.47;1.80;;;8.70;60.00;;;;;;5112095;28;20659;-67
2021/04/10 11:22:00;;;;;;;5.63;1.80;;;8.70;60.30;;;;;;5113575;28;20296;-67
2021/04/10 11:24:48;;;;;;;8.37;1.97;;;8.70;60.40;;;;;;5114349;28;20305;-67
2021/04/10 11:27:15;;;;;;;6.17;1.93;;;8.70;59.10;;;;;;5113218;28;20402;-67
2021/04/10 11:29:52;;;;;;;8.63;2.30;;;8.70;60.00;;;;;;5114003;28;20318;-67
2021/04/10 11:32:23;;;;;;;5.80;1.67;;;8.80;60.80;;;;;;5113686;28;20301;-67
2021/04/10 11:34:49;;;;;;;10.90;1.90;;;8.90;60.00;;;;;;5113242;28;20411;-67
2021/04/10 11:37:16;;;;;;;7.80;1.90;;;8.90;60.00;;;;;;5113762;28;20048;-66
2021/04/10 11:39:58;;;;;;;9.60;1.80;;;9.00;59.80;;;;;;5112786;28;20047;-67
2021/04/10 11:42:26;;;;;;;5.57;1.58;;;9.00;59.30;;;;;;5113724;28;20781;-67
2021/04/10 11:44:53;;;;;;;5.97;1.43;;;9.00;58.70;;;;;;5113286;28;20051;-67
2021/04/10 11:47:25;;;;;;;6.73;1.30;;;9.00;59.00;;;;;;5112603;28;20293;-67
2021/04/10 11:49:51;;;;;;;7.17;1.40;;;9.00;58.30;;;;;;5113316;28;20319;-67
2021/04/10 11:52:23;;;;;;;7.40;1.63;;;9.00;58.60;;;;;;5113424;28;20321;-67
2021/04/10 11:55:04;;;;;;;4.95;1.63;;;9.00;59.00;;;;;;5112727;28;20296;-67
2021/04/10 11:57:32;;;;;;;6.55;1.63;;;9.00;58.40;;;;;;5113284;28;20055;-67
2021/04/10 12:00:02;;;;;;;6.17;1.90;;;9.00;58.60;;;;;;5113118;28;20118;-67
2021/04/10 12:02:32;;;;;;;7.37;2.10;;;9.00;58.60;;;;;;5112906;28;20305;-67
2021/04/10 12:04:58;;;;;;;6.10;1.70;;;9.00;58.70;;;;;;5112746;28;20301;-67
2021/04/10 12:07:24;;;;;;;5.00;1.50;;;9.10;58.30;;;;;;5113206;28;20850;-67
2021/04/10 12:09:50;;;;;;;11.47;2.20;;;9.10;58.00;;;;;;5112154;28;20057;-67
2021/04/10 12:12:16;;;;;;;6.60;2.30;;;9.00;58.20;;;;;;5113253;28;20062;-67
2021/04/10 12:14:42;;;;;;;8.57;1.80;;;9.00;58.60;;;;;;5112994;28;20780;-68
2021/04/10 12:17:12;;;;;;;8.80;1.60;;;9.00;58.40;;;;;;5112335;28;20122;-67
2021/04/10 12:19:37;;;;;;;6.60;2.00;;;9.10;58.00;;;;;;5112850;28;20301;-68
2021/04/10 12:22:03;;;;;;;8.23;1.87;;;9.10;57.80;;;;;;5111863;28;20770;-68
2021/04/10 12:24:29;;;;;;;8.23;1.80;;;9.10;57.80;;;;;;5112724;28;20047;-67
2021/04/10 12:26:57;;;;;;;5.90;1.67;;;9.10;57.30;;;;;;5112593;28;20074;-67
2021/04/10 12:29:22;;;;;;;4.93;1.73;;;9.00;57.50;;;;;;5112036;28;20043;-68
2021/04/10 12:31:48;;;;;;;8.13;1.40;;;9.00;57.20;;;;;;5111994;28;20361;-67
2021/04/10 12:34:14;;;;;;;5.97;1.80;;;9.00;57.20;;;;;;5112467;28;20414;-67
2021/04/10 12:36:39;;;;;;;6.07;2.10;;;9.00;57.20;;;;;;5112035;27;20416;-67
2021/04/10 12:39:05;;;;;;;6.10;1.70;;;9.00;57.60;;;;;;5112197;28;20140;-67
2021/04/10 12:41:31;;;;;;;8.53;1.90;;;9.00;57.30;;;;;;5112319;28;20051;-67
2021/04/10 12:43:57;;;;;;;7.97;3.20;;;9.00;57.70;;;;;;5111347;27;20071;-67
2021/04/10 12:46:23;;;;;;;5.97;1.90;;;9.00;57.70;;;;;;5112628;28;20052;-67
2021/04/10 12:48:48;;;;;;;5.43;1.63;;;8.90;57.60;;;;;;5112144;28;20405;-68
2021/04/10 12:51:15;;;;;;;5.40;1.70;;;8.90;57.10;;;;;;5111198;28;20479;-67
2021/04/10 12:53:41;;;;;;;6.63;1.57;;;8.90;57.10;;;;;;5111985;28;20048;-68
2021/04/10 12:56:08;;;;;;;7.40;2.17;;;9.00;57.40;;;;;;5112234;28;20289;-68
2021/04/10 12:58:34;;;;;;;5.67;2.27;;;9.00;57.20;;;;;;5111888;28;20320;-67
2021/04/10 13:01:00;;;;;;;7.00;1.90;;;9.00;56.90;;;;;;5111881;28;20321;-66
2021/04/10 13:03:25;;;;;;;6.30;1.83;;;9.00;57.10;;;;;;5112460;28;20339;-67
2021/04/10 13:05:52;;;;;;;10.03;2.00;;;9.00;57.10;;;;;;5111236;28;20096;-67